Terminal Aerodrome Forecast
Issued by NWS

Home | Current Version | Previous Version | Text Only | Print | Product List | Glossary On
Versions: 1 2 3 4 5 6 7 8 9 10 11 12 13 14 15 16 17 18 19 20 21 22 23 24 25 26 27
000
FTUS45 KPSR 161100
TAFIWA
TAF
KIWA 161122Z 1612/1712 15010KT P6SM FEW060 BKN150
     FM161800 12012KT P6SM VCSH BKN060 BKN150
     FM170000 12010KT P6SM -SHRA VCTS SCT050CB BKN080 OVC120
      AMD LTD TO CLD VIS AND WIND TIL 161300=

USA.gov is the U.S. government's official web portal to all federal, state and local government web resources and services.